Time;durP1;ratioP1;P1;durP2;ratioP2;P2;SDS_P1;SDS_P2;PMS_P1;PMS_P2;Temp;Humidity;BMP_temperature;BMP_pressure;BME280_temperature;BME280_humidity;BME280_pressure;Samples;Min_cycle;Max_cycle;Signal;HPM_P1;HPM_P2
2021/04/08 00:06:33;;;;;;;;;;;;;;;;;;;;;
2021/04/08 00:09:36;;;;;;;7.65;3.25;;;;;;;;;;5032360;28;20117;-54
2021/04/08 00:12:04;;;;;;;4.57;3.07;;;;;;;;;;5041862;28;20029;-55
2021/04/08 00:17:27;;;;;;;4.80;3.23;;;;;;;;;;5042670;28;20031;-56
2021/04/08 00:22:49;;;;;;;4.57;3.20;;;;;;;;;;5039593;28;20120;-55
2021/04/08 00:25:36;;;;;;;5.23;3.57;;;;;;;;;;5042782;28;20541;-57
2021/04/08 00:28:22;;;;;;;3.50;3.10;;;;;;;;;;5024411;28;20025;-56
2021/04/08 00:31:06;;;;;;;4.37;3.13;;;;;;;;;;5059703;28;20079;-56
2021/04/08 00:33:58;;;;;;;3.43;2.70;;;;;;;;;;5063194;28;20029;-54
2021/04/08 00:36:45;;;;;;;5.97;4.20;;;;;;;;;;5045618;28;20069;-56
2021/04/08 00:39:19;;;;;;;6.53;3.13;;;;;;;;;;5063436;28;20051;-55
2021/04/08 00:45:26;;;;;;;5.67;4.07;;;;;;;;;;5000463;28;20408;-55
2021/04/08 00:48:21;;;;;;;4.77;3.17;;;;;;;;;;5062667;28;20078;-55
2021/04/08 00:50:55;;;;;;;9.53;3.57;;;;;;;;;;5062221;28;20084;-57
2021/04/08 00:53:41;;;;;;;4.00;3.43;;;;;;;;;;5061877;28;20033;-57
2021/04/08 00:56:21;;;;;;;4.97;3.67;;;;;;;;;;5044150;28;20048;-57
2021/04/08 01:02:10;;;;;;;8.93;3.80;;;;;;;;;;5031479;28;20124;-55
2021/04/08 01:04:40;;;;;;;6.70;4.40;;;;;;;;;;5043789;28;20094;-56
2021/04/08 01:07:21;;;;;;;4.70;4.10;;;;;;;;;;5026955;28;20045;-57
2021/04/08 01:09:59;;;;;;;5.87;4.47;;;;;;;;;;5060777;28;20033;-54
2021/04/08 01:12:30;;;;;;;6.07;4.30;;;;;;;;;;5062443;28;20028;-57
2021/04/08 01:15:38;;;;;;;8.23;4.83;;;;;;;;;;5044630;28;20063;-57
2021/04/08 01:18:31;;;;;;;6.83;5.10;;;;;;;;;;4981246;28;20066;-57
2021/04/08 01:21:34;;;;;;;10.20;5.03;;;;;;;;;;4980757;28;20058;-56
2021/04/08 01:24:12;;;;;;;6.17;5.37;;;;;;;;;;4941548;29;20146;-56
2021/04/08 01:30:14;;;;;;;5.70;5.10;;;;;;;;;;4940054;29;20048;-57
2021/04/08 01:33:02;;;;;;;6.53;5.23;;;;;;;;;;4942588;29;20479;-53
2021/04/08 01:35:52;;;;;;;9.63;5.70;;;;;;;;;;4942188;29;20494;-56
2021/04/08 01:39:05;;;;;;;7.17;4.40;;;;;;;;;;4941752;29;20028;-57
2021/04/08 01:44:51;;;;;;;6.23;4.70;;;;;;;;;;5061977;28;20112;-57
2021/04/08 01:47:18;;;;;;;6.97;5.63;;;;;;;;;;5035737;28;20084;-56
2021/04/08 01:50:07;;;;;;;8.40;4.90;;;;;;;;;;5061810;28;20338;-57
2021/04/08 01:53:04;;;;;;;7.00;5.63;;;;;;;;;;5038920;28;20034;-56
2021/04/08 02:02:13;;;;;;;5.33;4.27;;;;;;;;;;4995390;28;20029;-55
2021/04/08 02:04:55;;;;;;;5.57;4.10;;;;;;;;;;5034848;28;20037;-56
2021/04/08 02:08:01;;;;;;;5.23;3.93;;;;;;;;;;5039823;28;20035;-56
2021/04/08 02:10:40;;;;;;;5.17;4.07;;;;;;;;;;4960435;29;20035;-56
2021/04/08 02:13:33;;;;;;;4.93;3.93;;;;;;;;;;5031863;28;20057;-56
2021/04/08 02:19:10;;;;;;;14.17;3.57;;;;;;;;;;5061316;28;20116;-55
2021/04/08 02:24:49;;;;;;;3.10;2.47;;;;;;;;;;5061322;28;20032;-57
2021/04/08 02:27:28;;;;;;;4.20;3.00;;;;;;;;;;5061287;28;20040;-55
2021/04/08 02:30:10;;;;;;;3.93;3.07;;;;;;;;;;5061031;28;20056;-57
2021/04/08 02:32:49;;;;;;;3.13;2.40;;;;;;;;;;5060108;28;20118;-57
2021/04/08 02:35:30;;;;;;;7.37;3.13;;;;;;;;;;5043399;28;20049;-56
2021/04/08 02:38:16;;;;;;;6.90;4.80;;;;;;;;;;5043500;28;20370;-56
2021/04/08 02:40:48;;;;;;;3.97;2.63;;;;;;;;;;5043958;28;20021;-55
2021/04/08 02:43:49;;;;;;;4.20;3.00;;;;;;;;;;5042295;28;20029;-52
2021/04/08 02:52:12;;;;;;;6.57;3.17;;;;;;;;;;5057791;28;20081;-55
2021/04/08 02:57:44;;;;;;;2.77;2.07;;;;;;;;;;5049681;28;20033;-56
2021/04/08 03:00:28;;;;;;;3.27;2.50;;;;;;;;;;5058500;28;20025;-56
2021/04/08 03:09:52;;;;;;;4.47;2.17;;;;;;;;;;5026165;28;20049;-56
2021/04/08 03:18:30;;;;;;;3.27;2.73;;;;;;;;;;5035806;28;20037;-57
2021/04/08 03:21:25;;;;;;;;;;;;;;;;;;;;;
2021/04/08 03:24:04;;;;;;;2.77;1.77;;;;;;;;;;5056702;28;20089;-57
2021/04/08 03:29:39;;;;;;;5.97;1.97;;;;;;;;;;5056245;28;20044;-57
2021/04/08 03:32:28;;;;;;;3.07;2.10;;;;;;;;;;5024532;28;20058;-57
2021/04/08 03:35:26;;;;;;;5.63;2.43;;;;;;;;;;5032770;28;20133;-56
2021/04/08 03:38:14;;;;;;;3.40;2.03;;;;;;;;;;4971412;28;20049;-54
2021/04/08 03:43:45;;;;;;;7.50;2.57;;;;;;;;;;4974691;28;20535;-57
2021/04/08 03:49:20;;;;;;;4.40;1.83;;;;;;;;;;4975865;28;20485;-53
2021/04/08 03:55:27;;;;;;;3.58;1.88;;;;;;;;;;4969974;28;20034;-55
2021/04/08 03:57:57;;;;;;;3.97;2.43;;;;;;;;;;4976557;28;20023;-54
2021/04/08 04:03:32;;;;;;;6.73;1.90;;;;;;;;;;4976033;28;20073;-55
2021/04/08 04:06:10;;;;;;;3.97;2.07;;;;;;;;;;4976454;28;20372;-56
2021/04/08 04:09:06;;;;;;;;;;;;;;;;;;;;;
2021/04/08 04:11:34;;;;;;;5.20;2.37;;;;;;;;;;4961808;28;20043;-56
2021/04/08 04:14:27;;;;;;;3.73;2.90;;;;;;;;;;4975923;28;20061;-57
2021/04/08 04:20:10;;;;;;;;;;;;;;;;;;;;;
2021/04/08 04:22:42;;;;;;;;;;;;;;;;;;5036816;28;20352;-54
2021/04/08 04:25:40;;;;;;;;;;;;;;;;;;;;;
2021/04/08 04:31:17;;;;;;;4.83;2.60;;;;;;;;;;5045492;28;20136;-56
2021/04/08 04:33:49;;;;;;;2.83;1.83;;;;;;;;;;5057335;28;20037;-55
2021/04/08 04:36:19;;;;;;;5.37;2.10;;;;;;;;;;5057109;28;20057;-56
2021/04/08 04:38:56;;;;;;;3.97;2.97;;;;;;;;;;5054923;28;20037;-54
2021/04/08 04:42:03;;;;;;;3.77;3.03;;;;;;;;;;5056497;28;20454;-57
2021/04/08 04:47:41;;;;;;;4.50;2.73;;;;;;;;;;4975251;28;20121;-54
2021/04/08 04:50:28;;;;;;;;;;;;;;;;;;;;;
2021/04/08 04:56:21;;;;;;;6.15;2.72;;;;;;;;;;5055136;28;20125;-51
2021/04/08 04:59:18;;;;;;;;;;;;;;;;;;;;;
2021/04/08 05:02:10;;;;;;;;;;;;;;;;;;;;;
2021/04/08 05:07:44;;;;;;;3.07;2.20;;;;;;;;;;5053408;28;20079;-55
2021/04/08 05:13:04;;;;;;;4.23;3.13;;;;;;;;;;5057746;28;20123;-57
2021/04/08 05:15:52;;;;;;;4.70;2.70;;;;;;;;;;5055451;28;20029;-57
2021/04/08 05:18:42;;;;;;;6.07;3.50;;;;;;;;;;5055458;28;20029;-55
2021/04/08 05:21:23;;;;;;;4.22;2.88;;;;;;;;;;5055375;28;20467;-56
2021/04/08 05:23:52;;;;;;;4.50;2.77;;;;;;;;;;5038226;28;20463;-55
2021/04/08 05:26:24;;;;;;;5.53;3.53;;;;;;;;;;5019095;28;20507;-52
2021/04/08 05:29:15;;;;;;;5.33;3.57;;;;;;;;;;5055778;28;20356;-55
2021/04/08 05:35:06;;;;;;;2.67;2.27;;;;;;;;;;4973572;28;20109;-56
2021/04/08 05:38:01;;;;;;;4.70;3.53;;;;;;;;;;5055733;28;20083;-55
2021/04/08 05:40:55;;;;;;;9.53;4.10;;;;;;;;;;5018454;28;20037;-58
2021/04/08 05:43:39;;;;;;;5.20;3.60;;;;;;;;;;5034770;28;20412;-55
2021/04/08 05:46:24;;;;;;;3.87;2.80;;;;;;;;;;5036630;28;20457;-58
2021/04/08 05:49:23;;;;;;;;;;;;;;;;;;;;;
2021/04/08 05:52:05;;;;;;;5.57;3.77;;;;;;;;;;5045761;28;20049;-55
2021/04/08 05:54:57;;;;;;;6.87;3.13;;;;;;;;;;5053954;28;20037;-54
2021/04/08 05:57:55;;;;;;;3.67;2.80;;;;;;;;;;5054749;28;20091;-54
2021/04/08 06:00:21;;;;;;;6.07;2.40;;;;;;;;;;5038940;28;20115;-55
2021/04/08 06:03:03;;;;;;;5.70;4.13;;;;;;;;;;5053079;28;20041;-57
2021/04/08 06:05:55;;;;;;;6.27;3.30;;;;;;;;;;5052789;28;20033;-55
2021/04/08 06:08:29;;;;;;;2.87;1.90;;;;;;;;;;5043683;28;20040;-56
2021/04/08 06:11:22;;;;;;;5.10;2.63;;;;;;;;;;5036674;28;20363;-53
2021/04/08 06:16:45;;;;;;;3.10;2.07;;;;;;;;;;5053811;28;20025;-57
2021/04/08 06:19:45;;;;;;;3.57;2.57;;;;;;;;;;5036044;28;20029;-54
2021/04/08 06:22:34;;;;;;;4.72;2.55;;;;;;;;;;5054600;28;20025;-56
2021/04/08 06:25:06;;;;;;;9.33;2.97;;;;;;;;;;5043939;28;20359;-54
2021/04/08 06:27:47;;;;;;;2.83;1.80;;;;;;;;;;5032260;28;20124;-54
2021/04/08 06:30:27;;;;;;;;;;;;;;;;;;5032287;28;20025;-54
2021/04/08 06:36:11;;;;;;;4.93;3.20;;;;;;;;;;4972928;28;20039;-56
2021/04/08 06:39:09;;;;;;;4.10;3.10;;;;;;;;;;5026089;28;20029;-55
2021/04/08 06:45:09;;;;;;;4.30;3.00;;;;;;;;;;4948728;29;20035;-54
2021/04/08 06:48:15;;;;;;;4.20;3.20;;;;;;;;;;5030866;28;20033;-54
2021/04/08 06:50:51;;;;;;;5.53;3.60;;;;;;;;;;4953480;29;20468;-53
2021/04/08 06:53:34;;;;;;;6.23;4.27;;;;;;;;;;4954487;29;20114;-57
2021/04/08 06:56:08;;;;;;;5.93;3.30;;;;;;;;;;4989538;28;20499;-53
2021/04/08 06:58:41;;;;;;;6.80;5.23;;;;;;;;;;5030349;28;20528;-57
2021/04/08 07:01:23;;;;;;;9.10;4.43;;;;;;;;;;5032823;28;20387;-54
2021/04/08 07:03:55;;;;;;;9.73;5.90;;;;;;;;;;5033167;28;20120;-55
2021/04/08 07:06:48;;;;;;;7.30;4.30;;;;;;;;;;5033697;28;20418;-55
2021/04/08 07:09:28;;;;;;;6.27;4.90;;;;;;;;;;5033959;28;20072;-57
2021/04/08 07:12:08;;;;;;;9.55;5.68;;;;;;;;;;5033465;28;20124;-56
2021/04/08 07:14:47;;;;;;;6.60;5.18;;;;;;;;;;5034567;28;20069;-57
2021/04/08 07:17:19;;;;;;;6.80;4.83;;;;;;;;;;5032981;28;20025;-57
2021/04/08 07:23:32;;;;;;;6.03;4.40;;;;;;;;;;4964649;28;20031;-57
2021/04/08 07:26:14;;;;;;;5.55;3.95;;;;;;;;;;4902762;29;20037;-57
2021/04/08 07:28:48;;;;;;;5.57;4.03;;;;;;;;;;4902670;29;20028;-57
2021/04/08 07:31:28;;;;;;;4.93;3.83;;;;;;;;;;4973016;28;20051;-56
2021/04/08 07:34:16;;;;;;;5.80;3.83;;;;;;;;;;5009599;28;20041;-53
2021/04/08 07:43:18;;;;;;;13.27;4.73;;;;;;;;;;5057465;28;20051;-56
2021/04/08 07:46:11;;;;;;;3.87;3.37;;;;;;;;;;5032258;28;20514;-56
2021/04/08 07:48:50;;;;;;;;;;;;;;;;;;;;;
2021/04/08 07:51:42;;;;;;;9.70;4.50;;;;;;;;;;5041305;28;20128;-58
2021/04/08 07:54:32;;;;;;;8.53;5.77;;;;;;;;;;5057018;28;20033;-56
2021/04/08 07:57:07;;;;;;;5.63;3.47;;;;;;;;;;5057070;28;20021;-58
2021/04/08 07:59:43;;;;;;;3.77;3.30;;;;;;;;;;5056899;28;20032;-56
2021/04/08 08:02:12;;;;;;;8.50;4.43;;;;;;;;;;5057755;28;20143;-58
2021/04/08 08:04:47;;;;;;;5.80;4.30;;;;;;;;;;5056387;28;20052;-57
2021/04/08 08:07:39;;;;;;;6.43;4.30;;;;;;;;;;5038979;28;20032;-56
2021/04/08 08:10:41;;;;;;;3.58;3.00;;;;;;;;;;5039063;28;20493;-56
2021/04/08 08:13:29;;;;;;;6.97;3.53;;;;;;;;;;5024641;28;20120;-57
2021/04/08 08:19:31;;;;;;;;;;;;;;;;;;;;;
2021/04/08 08:22:29;;;;;;;6.30;3.50;;;;;;;;;;5057348;28;20431;-55
2021/04/08 08:25:04;;;;;;;6.50;3.77;;;;;;;;;;5054181;28;20128;-57
2021/04/08 08:27:54;;;;;;;6.82;3.78;;;;;;;;;;5055623;28;20434;-57
2021/04/08 08:30:51;;;;;;;6.10;3.55;;;;;;;;;;5055754;28;20021;-56
2021/04/08 08:33:27;;;;;;;4.80;3.10;;;;;;;;;;5023266;28;20037;-56
2021/04/08 08:39:01;;;;;;;5.30;3.67;;;;;;;;;;5055980;28;20025;-54
2021/04/08 08:44:43;;;;;;;9.25;3.60;;;;;;;;;;5052807;28;20025;-54
2021/04/08 08:47:39;;;;;;;5.37;3.57;;;;;;;;;;5038508;28;20037;-55
2021/04/08 08:50:10;;;;;;;4.97;3.67;;;;;;;;;;5056204;28;20098;-55
2021/04/08 08:52:45;;;;;;;4.55;3.33;;;;;;;;;;5038204;28;20533;-57
2021/04/08 08:55:31;;;;;;;10.13;3.97;;;;;;;;;;5055148;28;20498;-57
2021/04/08 08:58:24;;;;;;;7.68;3.97;;;;;;;;;;5056568;28;20057;-56
2021/04/08 09:01:10;;;;;;;5.60;3.60;;;;;;;;;;5037743;28;20037;-53
2021/04/08 09:04:13;;;;;;;9.13;4.20;;;;;;;;;;5037997;28;20123;-57
2021/04/08 09:06:43;;;;;;;4.17;2.90;;;;;;;;;;5055404;28;20028;-56
2021/04/08 09:09:24;;;;;;;7.93;3.33;;;;;;;;;;5053757;28;20040;-56
2021/04/08 09:15:33;;;;;;;4.60;2.83;;;;;;;;;;4955232;29;20066;-56
2021/04/08 09:18:08;;;;;;;6.85;3.63;;;;;;;;;;4955083;28;20196;-55
2021/04/08 09:20:48;;;;;;;7.32;4.38;;;;;;;;;;4955421;29;20068;-57
2021/04/08 09:23:43;;;;;;;5.95;4.25;;;;;;;;;;4986858;28;20049;-56
2021/04/08 09:26:27;;;;;;;4.07;3.28;;;;;;;;;;5053787;28;20033;-57
2021/04/08 09:29:02;;;;;;;3.50;2.45;;;;;;;;;;5053284;28;20116;-56
2021/04/08 09:31:48;;;;;;;5.80;3.53;;;;;;;;;;5054951;28;20358;-55
2021/04/08 09:34:26;;;;;;;4.03;2.80;;;;;;;;;;5022345;28;20132;-56
2021/04/08 09:36:58;;;;;;;5.05;3.15;;;;;;;;;;5055736;28;20061;-57
2021/04/08 09:39:45;;;;;;;5.30;3.10;;;;;;;;;;5053895;28;20029;-57
2021/04/08 09:42:29;;;;;;;4.17;3.17;;;;;;;;;;5054301;28;20031;-57
2021/04/08 09:45:39;;;;;;;8.15;2.92;;;;;;;;;;5055129;28;20489;-57
2021/04/08 09:48:38;;;;;;;;;;;;;;;;;;;;;
2021/04/08 09:51:45;;;;;;;3.42;2.35;;;;;;;;;;5050474;28;20045;-55
2021/04/08 09:54:37;;;;;;;6.53;2.88;;;;;;;;;;5055373;28;20037;-55
2021/04/08 10:00:16;;;;;;;4.07;2.70;;;;;;;;;;5051126;28;20029;-56
2021/04/08 10:03:19;;;;;;;4.28;3.13;;;;;;;;;;5054465;28;20478;-57
2021/04/08 10:05:55;;;;;;;5.30;2.28;;;;;;;;;;5053624;28;20036;-54
2021/04/08 10:08:37;;;;;;;3.00;1.98;;;;;;;;;;5054287;28;20084;-56
2021/04/08 10:11:33;;;;;;;4.53;2.80;;;;;;;;;;5035976;28;20070;-57
2021/04/08 10:14:41;;;;;;;3.58;2.83;;;;;;;;;;5054110;28;20425;-56
2021/04/08 10:17:22;;;;;;;5.50;2.97;;;;;;;;;;4973020;28;20122;-55
2021/04/08 10:19:55;;;;;;;7.60;3.28;;;;;;;;;;4956197;28;20039;-57
2021/04/08 10:22:44;;;;;;;5.05;2.53;;;;;;;;;;4972964;28;20043;-56
2021/04/08 10:25:28;;;;;;;3.67;2.45;;;;;;;;;;4953849;28;20560;-57
2021/04/08 10:28:03;;;;;;;8.25;2.38;;;;;;;;;;4973271;28;20113;-54
2021/04/08 10:33:33;;;;;;;4.38;2.80;;;;;;;;;;4972160;28;20433;-57
2021/04/08 10:36:17;;;;;;;6.93;3.17;;;;;;;;;;4972546;28;20039;-57
2021/04/08 10:39:04;;;;;;;3.13;2.05;;;;;;;;;;4972280;28;20034;-55
2021/04/08 10:41:58;;;;;;;4.57;2.92;;;;;;;;;;4972468;28;20057;-54
2021/04/08 10:48:06;;;;;;;4.20;2.40;;;;;;;;;;4974936;28;20453;-55
2021/04/08 10:50:40;;;;;;;4.05;2.40;;;;;;;;;;5004178;28;20034;-56
2021/04/08 10:53:32;;;;;;;3.10;2.53;;;;;;;;;;5024894;28;20390;-56
2021/04/08 10:56:09;;;;;;;4.05;2.63;;;;;;;;;;5049539;28;20037;-57
2021/04/08 10:58:50;;;;;;;4.35;2.78;;;;;;;;;;5053880;28;20021;-57
2021/04/08 11:04:36;;;;;;;4.15;2.85;;;;;;;;;;4991341;28;20093;-57
2021/04/08 11:07:16;;;;;;;3.80;2.60;;;;;;;;;;4991803;28;20034;-56
2021/04/08 11:12:48;;;;;;;7.55;3.53;;;;;;;;;;5020858;28;20094;-57
2021/04/08 11:15:49;;;;;;;;;;;;;;;;;;;;;
2021/04/08 11:18:22;;;;;;;4.53;3.03;;;;;;;;;;5048420;28;20103;-56
2021/04/08 11:21:05;;;;;;;4.05;2.60;;;;;;;;;;5052793;28;20059;-56
2021/04/08 11:23:37;;;;;;;3.00;2.28;;;;;;;;;;5053200;28;20521;-58
2021/04/08 11:26:21;;;;;;;3.47;2.42;;;;;;;;;;5052309;28;20060;-58
2021/04/08 11:35:05;;;;;;;;;;;;;;;;;;5049982;28;20123;-58
2021/04/08 11:37:38;;;;;;;5.10;2.53;;;;;;;;;;5053069;28;19934;-56
2021/04/08 11:40:11;;;;;;;4.55;2.53;;;;;;;;;;5053096;28;20025;-57
2021/04/08 11:48:59;;;;;;;4.03;2.72;;;;;;;;;;5053282;28;20029;-58
2021/04/08 11:51:43;;;;;;;5.60;2.63;;;;;;;;;;5053223;28;20371;-58
2021/04/08 11:54:10;;;;;;;5.82;2.80;;;;;;;;;;5052624;28;20116;-58
2021/04/08 11:57:03;;;;;;;2.72;2.03;;;;;;;;;;5017941;28;20333;-58
2021/04/08 11:59:50;;;;;;;6.63;3.30;;;;;;;;;;5051862;28;20029;-56
2021/04/08 12:02:39;;;;;;;3.03;2.30;;;;;;;;;;5052447;28;20041;-57
2021/04/08 12:05:20;;;;;;;6.00;2.85;;;;;;;;;;5055743;28;20462;-54
2021/04/08 12:08:00;;;;;;;;;;;;;;;;;;;;;
2021/04/08 12:10:51;;;;;;;6.60;2.90;;;;;;;;;;5057214;28;20021;-57
2021/04/08 12:13:37;;;;;;;;;;;;;;;;;;;;;
2021/04/08 12:16:09;;;;;;;4.13;2.30;;;;;;;;;;5053083;28;20043;-56
2021/04/08 12:19:07;;;;;;;5.70;2.45;;;;;;;;;;5056620;28;20027;-58
2021/04/08 12:22:02;;;;;;;3.78;2.13;;;;;;;;;;5023889;28;20083;-58
2021/04/08 12:25:06;;;;;;;2.95;2.00;;;;;;;;;;5038059;28;20028;-56
2021/04/08 12:27:39;;;;;;;3.88;2.25;;;;;;;;;;5051598;28;20055;-58
2021/04/08 12:30:13;;;;;;;8.48;3.25;;;;;;;;;;5056436;28;20029;-58
2021/04/08 12:32:46;;;;;;;4.93;2.60;;;;;;;;;;5055571;28;20061;-56
2021/04/08 12:35:27;;;;;;;5.30;2.17;;;;;;;;;;5055735;28;20475;-58
2021/04/08 12:38:22;;;;;;;3.88;2.45;;;;;;;;;;5056633;28;20098;-58
2021/04/08 12:41:26;;;;;;;4.20;2.17;;;;;;;;;;5056541;28;20021;-58
2021/04/08 12:44:05;;;;;;;6.25;2.15;;;;;;;;;;5055949;28;20021;-58
2021/04/08 12:47:10;;;;;;;6.72;2.33;;;;;;;;;;5056710;28;20025;-58
2021/04/08 12:50:07;;;;;;;5.20;3.05;;;;;;;;;;5056146;28;20064;-58
2021/04/08 12:52:41;;;;;;;2.53;1.75;;;;;;;;;;5028500;28;20047;-57
2021/04/08 12:55:18;;;;;;;3.17;2.13;;;;;;;;;;5038091;28;20025;-58
2021/04/08 12:58:08;;;;;;;3.85;1.83;;;;;;;;;;5038345;28;20052;-57
2021/04/08 13:00:36;;;;;;;4.57;2.50;;;;;;;;;;5027976;28;20044;-58
2021/04/08 13:03:05;;;;;;;3.78;1.75;;;;;;;;;;5055977;28;20494;-55
2021/04/08 13:05:42;;;;;;;3.92;1.90;;;;;;;;;;5056034;28;20424;-58
2021/04/08 13:08:20;;;;;;;4.40;1.92;;;;;;;;;;5037719;28;20029;-57
2021/04/08 13:10:57;;;;;;;3.47;3.03;;;;;;;;;;5055602;28;20104;-58
2021/04/08 13:13:36;;;;;;;2.60;1.63;;;;;;;;;;5050860;28;20051;-58
2021/04/08 13:16:10;;;;;;;3.47;1.90;;;;;;;;;;5055243;28;20029;-58
2021/04/08 13:18:44;;;;;;;5.35;2.28;;;;;;;;;;5038074;28;20055;-57
2021/04/08 13:21:16;;;;;;;2.47;1.48;;;;;;;;;;5056439;28;20029;-58
2021/04/08 13:23:47;;;;;;;6.07;2.08;;;;;;;;;;5055186;28;20024;-58
2021/04/08 13:26:17;;;;;;;7.03;2.70;;;;;;;;;;5056312;28;20056;-58
2021/04/08 13:31:56;;;;;;;2.85;1.60;;;;;;;;;;5041719;28;20457;-58
2021/04/08 13:34:32;;;;;;;3.78;1.90;;;;;;;;;;5039684;28;20458;-58
2021/04/08 13:37:17;;;;;;;6.30;2.80;;;;;;;;;;5038029;28;20355;-58
2021/04/08 13:40:02;;;;;;;3.50;1.75;;;;;;;;;;5037602;28;20107;-57
2021/04/08 13:42:34;;;;;;;2.53;1.50;;;;;;;;;;5051145;28;20049;-55
2021/04/08 13:45:06;;;;;;;3.30;1.92;;;;;;;;;;5054915;28;20029;-56
2021/04/08 13:47:32;;;;;;;6.07;2.40;;;;;;;;;;5037224;28;20226;-57
2021/04/08 13:50:06;;;;;;;3.63;2.15;;;;;;;;;;5055155;28;20025;-57
2021/04/08 13:52:40;;;;;;;3.70;2.17;;;;;;;;;;5036744;28;20041;-55
2021/04/08 13:55:16;;;;;;;3.97;2.50;;;;;;;;;;5054374;28;20021;-57
2021/04/08 13:57:47;;;;;;;2.85;1.70;;;;;;;;;;5054102;28;20037;-57
2021/04/08 14:00:41;;;;;;;;;;;;;;;;;;;;;
2021/04/08 14:03:19;;;;;;;4.60;2.47;;;;;;;;;;5051850;28;20375;-56
2021/04/08 14:08:50;;;;;;;4.38;2.67;;;;;;;;;;5046264;28;20029;-56
2021/04/08 14:14:08;;;;;;;6.18;2.67;;;;;;;;;;5043491;28;20313;-57
2021/04/08 14:16:46;;;;;;;2.55;1.85;;;;;;;;;;5054045;28;20028;-57
2021/04/08 14:22:16;;;;;;;3.33;1.92;;;;;;;;;;5054793;28;20041;-56
2021/04/08 14:27:57;;;;;;;4.25;2.58;;;;;;;;;;5039337;28;20387;-56
2021/04/08 14:30:31;;;;;;;6.13;3.15;;;;;;;;;;5054519;28;20024;-58
2021/04/08 14:33:08;;;;;;;8.23;3.08;;;;;;;;;;5053685;28;20052;-58
2021/04/08 14:35:44;;;;;;;4.28;2.25;;;;;;;;;;5016441;28;20451;-55
2021/04/08 14:38:21;;;;;;;3.05;1.98;;;;;;;;;;5035458;28;20047;-56
2021/04/08 14:43:56;;;;;;;3.63;2.85;;;;;;;;;;5050616;28;20056;-56
2021/04/08 14:46:37;;;;;;;5.53;2.65;;;;;;;;;;5054614;28;20025;-55
2021/04/08 14:49:21;;;;;;;4.95;2.70;;;;;;;;;;5054052;28;20033;-56
2021/04/08 14:52:01;;;;;;;3.08;1.75;;;;;;;;;;5036714;28;20079;-56
2021/04/08 14:54:33;;;;;;;5.63;2.53;;;;;;;;;;5047927;28;20055;-56
2021/04/08 14:56:59;;;;;;;7.82;2.03;;;;;;;;;;5053621;28;20583;-55
2021/04/08 14:59:27;;;;;;;3.58;2.50;;;;;;;;;;5053177;28;20033;-56
2021/04/08 15:01:59;;;;;;;3.00;1.77;;;;;;;;;;5053121;28;20065;-56
2021/04/08 15:04:39;;;;;;;4.10;3.00;;;;;;;;;;5053380;28;20442;-56
2021/04/08 15:07:40;;;;;;;3.97;2.13;;;;;;;;;;5054018;28;20059;-57
2021/04/08 15:10:31;;;;;;;3.85;2.65;;;;;;;;;;5053228;28;20055;-57
2021/04/08 15:15:56;;;;;;;4.78;2.50;;;;;;;;;;5039665;28;20029;-54
2021/04/08 15:18:25;;;;;;;4.15;3.08;;;;;;;;;;5053351;28;20017;-57
2021/04/08 15:21:07;;;;;;;;;;;;;;;;;;;;;
2021/04/08 15:23:41;;;;;;;4.35;2.50;;;;;;;;;;5053648;28;20022;-56
2021/04/08 15:26:15;;;;;;;6.80;3.15;;;;;;;;;;5051637;28;20033;-56
2021/04/08 15:29:02;;;;;;;4.65;2.30;;;;;;;;;;5053501;28;20359;-57
2021/04/08 15:31:50;;;;;;;3.35;2.22;;;;;;;;;;5035743;28;20037;-56
2021/04/08 15:34:18;;;;;;;3.97;3.13;;;;;;;;;;5037779;28;20064;-56
2021/04/08 15:36:46;;;;;;;4.05;2.83;;;;;;;;;;5019114;28;20120;-56
2021/04/08 15:39:19;;;;;;;3.97;2.42;;;;;;;;;;5054973;28;20028;-56
2021/04/08 15:41:52;;;;;;;5.88;3.22;;;;;;;;;;5057786;28;20429;-56
2021/04/08 15:44:33;;;;;;;4.63;2.75;;;;;;;;;;5057473;28;20104;-56
2021/04/08 15:47:16;;;;;;;2.58;1.92;;;;;;;;;;5057922;28;20021;-57
2021/04/08 15:49:54;;;;;;;3.83;2.75;;;;;;;;;;5039201;28;20083;-56
2021/04/08 15:52:43;;;;;;;4.60;2.70;;;;;;;;;;5057968;28;20071;-56
2021/04/08 15:55:13;;;;;;;7.05;2.95;;;;;;;;;;5057255;28;20486;-55
2021/04/08 15:57:46;;;;;;;6.55;3.30;;;;;;;;;;5057117;28;20159;-57
2021/04/08 16:00:18;;;;;;;4.90;2.88;;;;;;;;;;5057115;28;20032;-57
2021/04/08 16:03:03;;;;;;;4.28;2.70;;;;;;;;;;5057648;28;20418;-58
2021/04/08 16:05:35;;;;;;;6.63;2.97;;;;;;;;;;5057066;28;20017;-58
2021/04/08 16:08:12;;;;;;;4.18;2.33;;;;;;;;;;5056332;28;20024;-57
2021/04/08 16:10:47;;;;;;;6.85;2.63;;;;;;;;;;5052952;28;20116;-58
2021/04/08 16:13:15;;;;;;;5.22;3.00;;;;;;;;;;5057277;28;20080;-58
2021/04/08 16:15:56;;;;;;;3.45;2.10;;;;;;;;;;5056877;28;20024;-57
2021/04/08 16:18:39;;;;;;;3.28;2.45;;;;;;;;;;5056947;28;20390;-58
2021/04/08 16:21:25;;;;;;;3.90;2.58;;;;;;;;;;5039224;28;20057;-57
2021/04/08 16:24:09;;;;;;;5.35;2.75;;;;;;;;;;5056855;28;20021;-57
2021/04/08 16:29:41;;;;;;;6.10;2.97;;;;;;;;;;5050687;28;20467;-57
2021/04/08 16:35:20;;;;;;;4.93;2.65;;;;;;;;;;5050212;28;20108;-57
2021/04/08 16:37:58;;;;;;;4.78;2.90;;;;;;;;;;5039806;28;20029;-59
2021/04/08 16:40:52;;;;;;;7.65;2.95;;;;;;;;;;5039577;28;20048;-56
2021/04/08 16:43:40;;;;;;;4.00;2.58;;;;;;;;;;5047537;28;20041;-57
2021/04/08 16:46:16;;;;;;;8.60;2.50;;;;;;;;;;5056445;28;20049;-57
2021/04/08 16:48:51;;;;;;;4.50;3.05;;;;;;;;;;5055928;28;20103;-58
2021/04/08 16:51:41;;;;;;;6.22;2.88;;;;;;;;;;5054480;28;20143;-57
2021/04/08 16:54:41;;;;;;;3.42;2.28;;;;;;;;;;5036749;28;20460;-58
2021/04/08 16:57:15;;;;;;;3.65;2.05;;;;;;;;;;5055960;28;20470;-57
2021/04/08 16:59:47;;;;;;;3.05;1.85;;;;;;;;;;5056525;28;20025;-57
2021/04/08 17:02:27;;;;;;;4.25;2.45;;;;;;;;;;5055628;28;20025;-57
2021/04/08 17:05:14;;;;;;;4.13;2.53;;;;;;;;;;5038218;28;20021;-58
2021/04/08 17:07:46;;;;;;;3.33;2.25;;;;;;;;;;5054495;28;20494;-58
2021/04/08 17:10:22;;;;;;;4.57;2.40;;;;;;;;;;5037501;28;20056;-58
2021/04/08 17:13:00;;;;;;;12.13;2.45;;;;;;;;;;5038271;28;20021;-57
2021/04/08 17:15:45;;;;;;;5.35;2.65;;;;;;;;;;5055503;28;20409;-58
2021/04/08 17:18:17;;;;;;;7.47;3.10;;;;;;;;;;5055006;28;20379;-58
2021/04/08 17:21:02;;;;;;;;;;;;;;;;;;;;;
2021/04/08 17:23:34;;;;;;;5.28;3.17;;;;;;;;;;5051752;28;20033;-57
2021/04/08 17:26:19;;;;;;;3.30;2.55;;;;;;;;;;5054876;28;20347;-57
2021/04/08 17:28:57;;;;;;;4.28;2.30;;;;;;;;;;5055696;28;20367;-58
2021/04/08 17:31:26;;;;;;;4.75;2.60;;;;;;;;;;5036536;28;20036;-58
2021/04/08 17:34:20;;;;;;;5.05;2.58;;;;;;;;;;5054403;28;20053;-57
2021/04/08 17:39:41;;;;;;;2.97;1.98;;;;;;;;;;5055078;28;20087;-57
2021/04/08 17:42:16;;;;;;;6.97;2.72;;;;;;;;;;5054656;28;20033;-57
2021/04/08 17:45:10;;;;;;;7.30;2.53;;;;;;;;;;5037295;28;20043;-58
2021/04/08 17:47:39;;;;;;;6.85;2.03;;;;;;;;;;5054814;28;20068;-57
2021/04/08 17:50:10;;;;;;;4.03;2.60;;;;;;;;;;5054346;28;20089;-57
2021/04/08 17:52:39;;;;;;;3.20;2.42;;;;;;;;;;5054208;28;20033;-58
2021/04/08 17:55:18;;;;;;;5.18;2.40;;;;;;;;;;5054549;28;20032;-58
2021/04/08 17:58:22;;;;;;;4.25;2.63;;;;;;;;;;5054911;28;20082;-57
2021/04/08 18:00:50;;;;;;;7.85;2.58;;;;;;;;;;5053939;28;20025;-57
2021/04/08 18:03:24;;;;;;;4.57;1.88;;;;;;;;;;5035961;28;20045;-57
2021/04/08 18:05:56;;;;;;;5.47;2.33;;;;;;;;;;5054442;28;20028;-57
2021/04/08 18:08:38;;;;;;;4.78;2.60;;;;;;;;;;5054200;28;20033;-58
2021/04/08 18:11:13;;;;;;;3.92;2.05;;;;;;;;;;5040618;28;20033;-57
2021/04/08 18:13:48;;;;;;;4.38;2.22;;;;;;;;;;5054079;28;20037;-56
2021/04/08 18:16:41;;;;;;;5.70;2.70;;;;;;;;;;5036118;28;20035;-57
2021/04/08 18:19:18;;;;;;;5.43;2.00;;;;;;;;;;5051451;28;20112;-58
2021/04/08 18:21:50;;;;;;;5.25;3.22;;;;;;;;;;5053627;28;20041;-57
2021/04/08 18:24:41;;;;;;;;;;;;;;;;;;;;;
2021/04/08 18:27:17;;;;;;;;;;;;;;;;;;5035961;28;20364;-56
2021/04/08 18:29:56;;;;;;;6.70;3.05;;;;;;;;;;5053999;28;20007;-57
2021/04/08 18:32:31;;;;;;;4.07;2.30;;;;;;;;;;5053901;28;20411;-58
2021/04/08 18:35:03;;;;;;;4.78;2.90;;;;;;;;;;5037215;28;20055;-58
2021/04/08 18:40:29;;;;;;;5.55;3.55;;;;;;;;;;5054018;28;20035;-57
2021/04/08 18:45:50;;;;;;;6.15;3.65;;;;;;;;;;5054357;28;20037;-56
2021/04/08 18:48:38;;;;;;;12.32;4.53;;;;;;;;;;5053453;28;20024;-57
2021/04/08 18:56:54;;;;;;;7.38;4.13;;;;;;;;;;5042979;28;20537;-57
2021/04/08 18:59:29;;;;;;;4.25;3.13;;;;;;;;;;5053108;28;20057;-57
2021/04/08 19:02:15;;;;;;;4.65;3.03;;;;;;;;;;5035744;28;20406;-57
2021/04/08 19:04:50;;;;;;;5.57;3.83;;;;;;;;;;5054162;28;20047;-57
2021/04/08 19:07:34;;;;;;;7.03;3.58;;;;;;;;;;5053885;28;20025;-55
2021/04/08 19:10:07;;;;;;;4.23;3.17;;;;;;;;;;5035287;28;20065;-57
2021/04/08 19:12:54;;;;;;;6.05;3.25;;;;;;;;;;5054462;28;20033;-57
2021/04/08 19:15:30;;;;;;;;;;;;;;;;;;;;;
2021/04/08 19:18:19;;;;;;;8.57;3.43;;;;;;;;;;5051467;28;20029;-57
2021/04/08 19:20:46;;;;;;;4.27;1.90;;;;;;;;;;5054218;28;20089;-56
2021/04/08 19:23:37;;;;;;;;;;;;;;;;;;;;;
2021/04/08 19:26:26;;;;;;;3.13;2.43;;;;;;;;;;5053883;28;20382;-56
2021/04/08 19:29:02;;;;;;;7.10;3.07;;;;;;;;;;5053906;28;20037;-57
2021/04/08 19:37:38;;;;;;;5.70;3.27;;;;;;;;;;5040090;28;20040;-58
2021/04/08 19:40:26;;;;;;;5.60;3.40;;;;;;;;;;5053470;28;20509;-58
2021/04/08 19:46:24;;;;;;;;;;;;;;;;;;;;;
2021/04/08 19:48:54;;;;;;;7.93;5.97;;;;;;;;;;5049215;28;20438;-57
2021/04/08 19:51:23;;;;;;;8.97;6.17;;;;;;;;;;5034953;28;20410;-57
2021/04/08 19:54:01;;;;;;;8.07;5.33;;;;;;;;;;5053551;28;20036;-57
2021/04/08 19:56:31;;;;;;;9.07;4.67;;;;;;;;;;5053704;28;20021;-56